Latest Weather Observations for Latrobe Valley

IDV60801

Issued at 3:02 am EST Saturday 29 August 2015 (issued every 30 minutes, with the page automatically refreshed every 10 minutes)

About weather observations | Map of weather stations | Latest weather observations for VIC | Other Formats
Station Details ID: 085280 Name: LATROBE VALLEY AIRPORT Lat: -38.21 Lon: 146.47 Height: 55.7 m
Data from the previous 72 hours. | See also: Recent months at Latrobe Valley
Date/Time
EST
Temp
°C
App
Temp
°C
Dew
Point
Rel
Hum
%
Delta-T
°C
Wind Press
QNH
hPa
Press
MSL
hPa
Rain
since 9 am
mm
Dir
 
Spd
km/h
Gust
km/h
Spd
kts
Gust
kts
29/03:00am 4.5 0.8 4.5 100 0.0 W 13 15 7 8 1024.5 1024.6 2.6
29/02:30am 5.7 1.9 5.7 100 0.0 WSW 15 20 8 11 1024.7 1024.8 2.6
29/02:00am 5.1 1.5 5.1 100 0.0 WSW 13 17 7 9 1024.9 1025.0 2.6
29/01:30am 5.2 1.6 5.2 100 0.0 W 13 17 7 9 1024.9 1025.0 2.6
29/01:00am 5.7 2.6 5.7 100 0.0 W 11 15 6 8 1025.0 1025.1 2.6
29/12:30am 6.2 3.2 6.2 100 0.0 W 11 17 6 9 1024.9 1025.0 2.6
29/12:00am 6.2 2.1 6.2 100 0.0 WNW 17 20 9 11 1025.0 1025.1 2.6
 
Date/Time
EST
Temp
°C
App
Temp
°C
Dew
Point
Rel
Hum
%
Delta-T
°C
Wind Press
QNH
hPa
Press
MSL
hPa
Rain
since 9 am
mm
Dir
 
Spd
km/h
Gust
km/h
Spd
kts
Gust
kts
28/11:30pm 4.5 1.6 4.5 100 0.0 WSW 9 11 5 6 1025.1 1025.2 2.6
28/11:00pm 5.4 3.2 5.4 100 0.0 WSW 6 7 3 4 1025.1 1025.2 2.6
28/10:30pm 5.5 3.3 5.5 100 0.0 WNW 6 7 3 4 1025.3 1025.4 2.6
28/10:00pm 6.2 3.2 6.2 100 0.0 W 11 11 6 6 1025.3 1025.4 2.6
28/09:30pm 7.0 5.2 7.0 100 0.0 WSW 6 9 3 5 1025.4 1025.5 2.6
28/09:00pm 7.9 5.3 7.9 100 0.0 W 11 15 6 8 1025.1 1025.2 2.6
28/08:30pm 7.9 5.3 7.9 100 0.0 W 11 13 6 7 1024.9 1025.0 2.6
28/08:00pm 7.4 4.3 7.4 100 0.0 W 13 13 7 7 1024.7 1024.8 2.6
28/07:30pm 7.7 5.5 7.7 100 0.0 SW 9 11 5 6 1024.5 1024.6 2.6
28/07:00pm 8.4 5.6 8.4 100 0.0 SW 13 17 7 9 1024.3 1024.4 2.6
28/06:30pm 8.1 5.2 8.1 100 0.0 SW 13 15 7 8 1024.1 1024.2 2.6
28/06:00pm 8.6 5.8 8.6 100 0.0 SW 13 15 7 8 1023.8 1023.9 2.6
28/05:30pm 9.9 7.3 9.4 97 0.2 SW 13 19 7 10 1023.5 1023.6 2.6
28/05:00pm 10.7 8.0 10.4 98 0.2 SSW 15 24 8 13 1023.5 1023.6 2.6
28/04:30pm 11.8 9.2 10.7 93 0.6 SSW 15 20 8 11 1023.1 1023.2 2.6
28/04:00pm 12.1 9.4 10.3 89 0.9 SSW 15 20 8 11 1023.0 1023.1 2.6
28/03:30pm 11.7 9.2 10.9 95 0.4 SSW 15 20 8 11 1023.0 1023.1 2.6
28/03:00pm 11.5 7.8 10.2 92 0.7 SW 20 28 11 15 1023.1 1023.2 2.6
28/02:55pm 11.9 9.6 11.7 99 0.1 SSW 15 26 8 14 1023.0 1023.1 2.6
28/02:37pm 10.5 7.8 10.3 99 0.1 SW 15 24 8 13 1023.1 1023.2 2.6
28/02:30pm 12.0 10.9 12.0 100 0.0 WNW 9 11 5 6 1022.9 1023.0 2.4
28/02:03pm 10.7 9.2 10.7 100 0.0 WNW 9 13 5 7 1023.0 1023.1 2.2
28/02:00pm 10.9 9.5 10.9 100 0.0 W 9 13 5 7 1023.0 1023.1 2.2
28/01:51pm 10.6 8.7 10.6 100 0.0 W 11 17 6 9 1023.1 1023.2 2.2
28/01:38pm 10.8 7.8 10.8 100 0.0 W 17 22 9 12 1023.2 1023.3 1.4
28/01:36pm 10.8 7.8 10.8 100 0.0 WNW 17 22 9 12 1023.2 1023.3 1.0
28/01:30pm 11.5 9.1 11.5 100 0.0 WNW 15 19 8 10 1023.1 1023.2 1.0
28/01:00pm 11.0 8.9 11.0 100 0.0 W 13 19 7 10 1023.4 1023.5 1.0
28/12:30pm 10.5 8.6 10.5 100 0.0 WNW 11 15 6 8 1023.8 1023.9 1.0
28/12:16pm 10.4 7.7 10.4 100 0.0 WNW 15 22 8 12 1024.0 1024.1 0.8
28/12:00pm 10.4 7.0 10.4 100 0.0 WNW 19 22 10 12 1024.1 1024.2 0.8
28/11:38am 10.1 6.6 10.1 100 0.0 WNW 19 26 10 14 1024.3 1024.4 0.8
28/11:34am 10.0 6.4 10.0 100 0.0 WNW 19 26 10 14 1024.3 1024.4 0.8
28/11:30am 9.8 6.0 9.8 100 0.0 WNW 20 28 11 15 1024.4 1024.5 0.8
28/11:15am 9.7 5.9 9.7 100 0.0 WNW 20 24 11 13 1024.3 1024.4 0.6
28/11:00am 9.6 5.7 9.6 100 0.0 WNW 20 28 11 15 1024.3 1024.4 0.6
28/10:51am 9.8 6.0 9.8 100 0.0 WNW 20 26 11 14 1024.4 1024.5 0.6
28/10:30am 9.4 5.5 9.4 100 0.0 WNW 20 24 11 13 1024.4 1024.5 0.2
28/10:21am 9.3 5.4 9.3 100 0.0 WNW 20 26 11 14 1024.4 1024.5 0.2
28/10:00am 9.3 5.4 9.3 100 0.0 WNW 20 26 11 14 1024.3 1024.4 0.2
28/09:43am 9.4 4.7 9.4 100 0.0 WNW 24 32 13 17 1024.2 1024.3 0.0
28/09:30am 9.9 5.4 9.9 100 0.0 WNW 24 30 13 16 1024.1 1024.2 0.0
28/09:00am 9.1 5.3 9.1 100 0.0 W 19 28 10 15 1024.1 1024.2 40.8
28/08:30am 8.8 4.9 8.8 100 0.0 WNW 19 26 10 14 1024.0 1024.1 40.8
28/08:00am 8.4 4.4 8.4 100 0.0 WNW 19 28 10 15 1023.8 1023.9 40.8
28/07:30am 8.0 3.0 8.0 100 0.0 WNW 24 28 13 15 1023.7 1023.8 40.8
28/07:00am 7.7 3.4 7.7 100 0.0 WNW 20 24 11 13 1023.5 1023.6 40.8
28/06:30am 7.3 3.4 7.3 100 0.0 WNW 17 20 9 11 1023.2 1023.3 40.8
28/06:00am 7.9 3.8 7.9 100 0.0 WNW 19 28 10 15 1023.0 1023.1 40.8
28/05:30am 8.3 4.1 8.3 100 0.0 WNW 20 26 11 14 1022.8 1022.9 40.8
28/05:00am 8.5 3.6 8.5 100 0.0 WNW 24 30 13 16 1022.5 1022.6 40.8
28/04:30am 8.8 4.7 8.8 100 0.0 WNW 20 26 11 14 1022.1 1022.2 40.8
28/04:00am 9.4 5.7 9.4 100 0.0 W 19 22 10 12 1022.0 1022.1 40.8
28/03:30am 9.6 5.4 9.6 100 0.0 W 22 28 12 15 1021.7 1021.8 40.8
28/03:00am 9.7 6.1 9.7 100 0.0 W 19 24 10 13 1021.7 1021.8 40.8
28/02:30am 9.8 6.0 9.8 100 0.0 WSW 20 26 11 14 1021.8 1021.9 40.8
28/02:00am 10.0 6.3 10.0 100 0.0 WSW 20 26 11 14 1021.8 1021.9 40.8
28/01:30am 10.1 6.6 10.1 100 0.0 WSW 19 24 10 13 1021.8 1021.9 40.8
28/01:00am 10.2 6.7 10.2 100 0.0 W 19 24 10 13 1021.8 1021.9 40.8
28/12:30am 10.2 6.7 10.2 100 0.0 W 19 24 10 13 1021.6 1021.7 40.8
28/12:00am 10.0 6.4 10.0 100 0.0 W 19 22 10 12 1021.5 1021.6 40.8
 
Date/Time
EST
Temp
°C
App
Temp
°C
Dew
Point
Rel
Hum
%
Delta-T
°C
Wind Press
QNH
hPa
Press
MSL
hPa
Rain
since 9 am
mm
Dir
 
Spd
km/h
Gust
km/h
Spd
kts
Gust
kts
27/11:30pm 9.7 6.4 9.7 100 0.0 WSW 17 22 9 12 1021.4 1021.5 40.8
27/11:00pm 9.8 6.9 9.8 100 0.0 WSW 15 19 8 10 1021.4 1021.5 40.8
27/10:30pm 10.0 6.8 10.0 100 0.0 WSW 17 20 9 11 1021.3 1021.4 40.8
27/10:00pm 10.0 6.8 10.0 100 0.0 WSW 17 20 9 11 1021.3 1021.4 40.8
27/09:30pm 10.1 6.9 10.1 100 0.0 WSW 17 20 9 11 1021.3 1021.4 40.8
27/09:00pm 9.8 7.3 9.8 100 0.0 WSW 13 17 7 9 1021.1 1021.2 40.8
27/08:30pm 9.8 8.1 9.8 100 0.0 WSW 9 13 5 7 1020.9 1021.0 40.8
27/08:00pm 9.7 8.5 9.7 100 0.0 WSW 6 7 3 4 1020.7 1020.8 40.8
27/07:30pm 9.7 8.3 9.7 100 0.0 W 7 9 4 5 1020.4 1020.5 40.8
27/07:00pm 9.4 8.0 9.4 100 0.0 W 7 9 4 5 1020.0 1020.1 40.8
27/06:30pm 9.4 7.2 9.4 100 0.0 W 11 13 6 7 1019.8 1019.9 40.8
27/06:14pm 9.3 6.7 9.3 100 0.0 WNW 13 19 7 10 1019.6 1019.7 40.6
27/06:00pm 9.3 6.7 9.3 100 0.0 WNW 13 17 7 9 1019.5 1019.6 40.4
27/05:59pm 9.3 6.7 9.3 100 0.0 WNW 13 17 7 9 1019.4 1019.5 40.4
27/05:30pm 9.4 8.0 9.4 100 0.0 NW 7 13 4 7 1019.2 1019.3 38.0
27/05:00pm 9.5 6.9 9.5 100 0.0 W 13 15 7 8 1018.9 1019.0 34.4
27/04:43pm 9.5 7.3 9.5 100 0.0 W 11 17 6 9 1018.8 1018.9 33.4
27/04:30pm 9.4 7.2 9.4 100 0.0 W 11 15 6 8 1018.6 1018.7 33.2
27/04:26pm 9.4 7.2 9.4 100 0.0 W 11 15 6 8 1018.6 1018.7 33.0
27/04:06pm 9.3 5.9 9.3 100 0.0 SW 17 19 9 10 1018.4 1018.5 32.6
27/04:00pm 9.3 6.3 9.3 100 0.0 WSW 15 19 8 10 1018.4 1018.5 32.6
27/03:30pm 9.4 7.6 9.4 100 0.0 WSW 9 13 5 7 1018.5 1018.6 31.2
27/03:00pm 9.2 7.3 9.2 100 0.0 W 9 11 5 6 1018.5 1018.6 30.2
27/02:30pm 9.1 6.8 9.1 100 0.0 WNW 11 15 6 8 1018.7 1018.8 28.6
27/02:11pm 9.0 6.3 9.0 100 0.0 NW 13 15 7 8 1018.8 1018.9 27.6
27/02:00pm 9.0 5.9 9.0 100 0.0 NW 15 19 8 10 1018.9 1019.0 27.2
27/01:49pm 9.0 5.9 9.0 100 0.0 NW 15 20 8 11 1018.9 1019.0 26.8
27/01:30pm 9.0 5.2 9.0 100 0.0 NW 19 24 10 13 1018.9 1019.0 26.0
27/01:10pm 9.1 5.7 9.1 100 0.0 NW 17 20 9 11 1019.1 1019.2 25.0
27/01:00pm 9.1 6.4 9.1 100 0.0 NW 13 17 7 9 1019.3 1019.4 24.0
27/12:52pm 9.2 6.6 9.2 100 0.0 NW 13 17 7 9 1019.4 1019.5 23.4
27/12:30pm 9.5 6.2 9.5 100 0.0 NW 17 22 9 12 1019.4 1019.5 21.0
27/12:16pm 9.6 6.3 9.6 100 0.0 WNW 17 22 9 12 1019.4 1019.5 19.2
27/12:00pm 9.8 6.9 9.8 100 0.0 WNW 15 20 8 11 1019.6 1019.7 16.4
27/11:30am 10.0 6.8 10.0 100 0.0 NW 17 20 9 11 1019.7 1019.8 12.8
27/11:00am 10.0 6.8 10.0 100 0.0 NW 17 24 9 13 1019.7 1019.8 10.2
27/10:34am 9.9 7.1 9.9 100 0.0 WNW 15 24 8 13 1020.1 1020.2 7.8
27/10:30am 9.9 6.7 9.9 100 0.0 WNW 17 22 9 12 1020.1 1020.2 7.4
27/10:18am 9.8 6.2 9.8 100 0.0 WNW 19 24 10 13 1020.0 1020.1 5.6
27/10:00am 9.8 6.9 9.8 100 0.0 NW 15 20 8 11 1020.3 1020.4 3.4
27/09:30am 10.0 7.6 10.0 100 0.0 WNW 13 17 7 9 1020.5 1020.6 0.6
27/09:00am 10.1 8.5 10.1 100 0.0 WNW 9 9 5 5 1020.7 1020.8 7.2
27/08:30am 10.0 8.3 10.0 100 0.0 W 9 11 5 6 1020.8 1020.9 6.0
27/08:00am 10.0 9.3 10.0 100 0.0 W 4 9 2 5 1020.8 1020.9 4.6
27/07:30am 10.0 10.1 10.0 100 0.0 CALM 0 0 0 0 1020.5 1020.6 3.6
27/07:00am 9.8 9.8 9.8 100 0.0 CALM 0 0 0 0 1020.3 1020.4 2.8
27/06:30am 9.7 9.7 9.7 100 0.0 CALM 0 0 0 0 1020.2 1020.3 2.2
27/06:00am 9.6 9.5 9.6 100 0.0 CALM 0 0 0 0 1020.2 1020.3 2.0
27/05:30am 9.5 9.4 9.5 100 0.0 CALM 0 0 0 0 1020.4 1020.5 1.6
27/05:00am 9.6 9.5 9.6 100 0.0 CALM 0 0 0 0 1020.3 1020.4 1.2
27/04:30am 9.6 9.5 9.6 100 0.0 CALM 0 0 0 0 1020.4 1020.5 0.8
27/04:00am 9.5 9.4 9.5 100 0.0 CALM 0 0 0 0 1020.7 1020.8 0.6
27/03:30am 9.4 9.3 9.4 100 0.0 CALM 0 0 0 0 1020.8 1020.9 0.6
27/03:15am 9.2 9.0 9.2 100 0.0 CALM 0 2 0 1 1021.0 1021.1 0.6
27/03:00am 9.1 8.5 9.1 100 0.0 WNW 2 7 1 4 1021.1 1021.2 0.6
27/02:50am 9.0 7.6 9.0 100 0.0 NNW 6 7 3 4 1021.4 1021.5 0.4
27/02:46am 9.0 7.6 9.0 100 0.0 NE 6 7 3 4 1021.4 1021.5 0.4
27/02:30am 9.4 8.2 9.4 100 0.0 ENE 6 7 3 4 1021.4 1021.5 0.4
27/02:26am 9.3 8.4 9.3 100 0.0 ENE 4 7 2 4 1021.5 1021.6 0.4
27/02:00am 9.1 8.9 9.1 100 0.0 CALM 0 0 0 0 1022.0 1022.1 0.4
27/01:56am 9.2 9.0 9.2 100 0.0 CALM 0 0 0 0 1022.0 1022.1 0.4
27/01:30am 9.3 8.0 9.3 100 0.0 N 6 6 3 3 1022.2 1022.3 0.4
27/01:00am 9.1 7.8 9.1 100 0.0 N 6 7 3 4 1022.5 1022.6 0.4
27/12:30am 8.9 7.5 8.9 100 0.0 N 6 9 3 5 1022.7 1022.8 0.4
27/12:00am 9.4 8.2 9.4 100 0.0 NNW 6 7 3 4 1023.0 1023.1 0.2
 
Date/Time
EST
Temp
°C
App
Temp
°C
Dew
Point
Rel
Hum
%
Delta-T
°C
Wind Press
QNH
hPa
Press
MSL
hPa
Rain
since 9 am
mm
Dir
 
Spd
km/h
Gust
km/h
Spd
kts
Gust
kts
26/11:30pm 10.3 9.1 10.3 100 0.0 E 7 11 4 6 1023.5 1023.6 0.2
26/11:00pm 10.3 9.3 10.3 100 0.0 E 6 9 3 5 1023.8 1023.9 0.2
26/10:30pm 10.4 9.2 10.4 100 0.0 E 7 11 4 6 1024.0 1024.1 0.2
26/10:00pm 10.5 9.0 10.5 100 0.0 E 9 15 5 8 1024.2 1024.3 0.2
26/09:30pm 10.5 9.0 10.5 100 0.0 E 9 11 5 6 1024.4 1024.5 0.2
26/09:00pm 10.4 9.2 10.4 100 0.0 E 7 11 4 6 1024.5 1024.6 0.2
26/08:30pm 10.5 9.4 10.5 100 0.0 ENE 7 11 4 6 1024.6 1024.7 0.2
26/08:00pm 10.4 8.9 10.4 100 0.0 E 9 13 5 7 1024.5 1024.6 0.2
26/07:30pm 10.7 9.2 10.7 100 0.0 E 9 15 5 8 1024.5 1024.6 0.2
26/07:00pm 10.9 9.1 10.9 100 0.0 ENE 11 15 6 8 1024.6 1024.7 0.2
26/06:30pm 10.9 9.1 10.7 99 0.1 E 11 17 6 9 1024.5 1024.6 0.0
26/06:00pm 11.3 9.0 10.5 95 0.4 E 13 22 7 12 1024.3 1024.4 0.0
26/05:30pm 11.7 9.0 10.3 91 0.7 ENE 15 22 8 12 1024.2 1024.3 0.0
26/05:00pm 12.4 8.6 9.2 81 1.6 ENE 19 28 10 15 1024.0 1024.1 0.0
26/04:30pm 12.5 9.2 9.5 82 1.5 ENE 17 32 9 17 1023.9 1024.0 0.0
26/04:00pm 12.8 9.1 9.6 81 1.6 ENE 19 28 10 15 1024.0 1024.1 0.0
26/03:30pm 13.2 10.0 10.0 81 1.7 ENE 17 28 9 15 1023.9 1024.0 0.0
26/03:00pm 13.5 10.0 10.3 81 1.7 ENE 19 30 10 16 1024.0 1024.1 0.0
26/02:30pm 13.7 9.9 9.7 77 2.1 NE 20 26 11 14 1024.2 1024.3 0.0
26/02:00pm 13.8 9.5 9.5 75 2.2 ENE 22 35 12 19 1024.3 1024.4 0.0
26/01:30pm 13.9 9.7 9.7 76 2.2 ENE 22 35 12 19 1024.6 1024.7 0.0
26/01:00pm 13.9 9.4 9.9 77 2.1 ENE 24 35 13 19 1025.0 1025.1 0.0
26/12:30pm 13.7 9.3 10.3 80 1.8 ENE 24 37 13 20 1025.4 1025.5 0.0
26/12:00pm 13.5 9.3 9.7 78 1.9 ENE 22 37 12 20 1026.0 1026.1 0.0
26/11:30am 12.8 8.2 9.6 81 1.6 ENE 24 35 13 19 1026.7 1026.8 0.0
26/11:00am 12.8 9.8 10.5 86 1.2 NE 17 28 9 15 1026.9 1027.0 0.0
26/10:30am 12.7 10.1 10.8 88 1.0 ENE 15 24 8 13 1027.1 1027.2 0.0
26/10:00am 12.7 10.3 11.3 91 0.7 NE 15 20 8 11 1027.6 1027.7 0.0
26/09:30am 12.0 9.5 11.1 94 0.5 ENE 15 22 8 12 1027.6 1027.7 0.0
26/09:00am 10.0 7.2 9.9 99 0.1 NE 15 20 8 11 1027.8 1027.9 0.0
26/08:30am 10.2 8.5 10.0 99 0.1 ENE 9 15 5 8 1027.8 1027.9 0.0
26/08:00am 9.9 8.2 9.8 99 0.0 ENE 9 15 5 8 1027.8 1027.9 0.0
26/07:30am 9.2 6.9 9.1 99 0.0 E 11 17 6 9 1027.5 1027.6 0.0
26/07:00am 8.3 6.6 8.3 100 0.0 ENE 7 11 4 6 1027.2 1027.3 0.0
26/06:30am 8.4 6.7 8.4 100 0.0 E 7 11 4 6 1027.2 1027.3 0.0
26/06:00am 8.6 6.6 8.6 100 0.0 ENE 9 17 5 9 1027.1 1027.2 0.0
26/05:30am 8.6 6.6 8.6 100 0.0 ENE 9 13 5 7 1027.1 1027.2 0.0
26/05:00am 8.6 6.6 8.6 100 0.0 ENE 9 15 5 8 1027.2 1027.3 0.0
26/04:30am 8.3 7.5 8.2 99 0.0 ESE 2 9 1 5 1027.1 1027.2 0.0
26/04:00am 8.9 6.5 8.8 99 0.0 ENE 11 17 6 9 1026.9 1027.0 0.0
26/03:30am 9.1 6.7 8.8 98 0.1 ENE 11 17 6 9 1027.1 1027.2 0.0

Other Formats:

Comma delimited format used in spreadsheet applications
http://www.bom.gov.au/fwo/IDV60801/IDV60801.94891.axf

JavaScript Object Notation format (JSON) in row-major order
http://www.bom.gov.au/fwo/IDV60801/IDV60801.94891.json